Latest Weather Observations for Lismore Airport

IDN60801

Issued at 3:52 am EST Friday 22 June 2018 (issued every 10 minutes, with the page automatically refreshed every 10 minutes)

About weather observations | Map of weather stations | Latest weather observations for NSW | Other Formats
Station Details ID: 058214 Name: LISMORE AIRPORT AWS Lat: -28.83 Lon: 153.26 Height: 9.21 m
Data from the previous 72 hours. | See also: Recent months at Lismore Airport
Date/Time
EST
Temp
°C
App
Temp
°C
Dew
Point
°C
Rel
Hum
%
Delta-T
°C
Wind Press
QNH
hPa
Press
MSL
hPa
Rain since
9am
mm
Dir  Spd
km/h
Gust
km/h
Spd
kts
Gust
kts
22/03:40am 6.2 3.5 5.6 96 0.3 NNE 9 13 5 7 1026.0 1026.0 0.0
22/03:30am 6.6 3.6 6.0 96 0.3 NNE 11 19 6 10 1026.2 1026.2 0.0
22/03:00am 4.3 1.2 3.6 95 0.3 NNE 9 11 5 6 1026.2 1026.2 0.0
22/02:56am 4.9 1.9 4.3 96 0.3 NNE 9 11 5 6 1026.2 1026.2 0.0
22/02:30am 4.5 1.8 3.8 95 0.3 N 7 9 4 5 1026.3 1026.3 0.0
22/02:00am 5.6 3.1 4.9 95 0.3 N 7 7 4 4 1026.4 1026.4 0.0
22/01:30am 6.8 5.9 6.2 96 0.3 CALM 0 0 0 0 1026.5 1026.5 0.0
22/01:00am 4.5 3.1 3.6 94 0.4 CALM 0 0 0 0 1026.5 1026.5 0.0
22/12:53am 4.3 2.9 3.4 94 0.4 CALM 0 0 0 0 1026.5 1026.5 0.0
22/12:41am 4.8 2.4 4.1 95 0.3 N 6 11 3 6 1026.5 1026.5 0.0
22/12:37am 5.5 2.6 4.8 95 0.3 N 9 13 5 7 1026.5 1026.5 0.0
22/12:30am 6.1 3.4 5.4 95 0.3 N 9 13 5 7 1026.5 1026.5 0.0
22/12:07am 7.0 6.2 6.4 96 0.3 CALM 0 0 0 0 1026.4 1026.4 0.0
22/12:00am 6.9 5.6 6.2 95 0.3 NNE 2 9 1 5 1026.5 1026.5 0.0
 
Date/Time
EST
Temp
°C
App
Temp
°C
Dew
Point
°C
Rel
Hum
%
Delta-T
°C
Wind Press
QNH
hPa
Press
MSL
hPa
Rain since
9am
mm
Dir  Spd
km/h
Gust
km/h
Spd
kts
Gust
kts
21/11:30pm 7.5 4.7 6.9 96 0.3 N 11 15 6 8 1026.7 1026.7 0.0
21/11:00pm 6.9 3.9 6.2 95 0.3 N 11 11 6 6 1026.7 1026.7 0.0
21/10:42pm 8.0 6.3 7.4 96 0.3 N 6 11 3 6 1026.8 1026.8 0.0
21/10:30pm 7.1 6.3 6.4 95 0.3 CALM 0 0 0 0 1026.8 1026.8 0.0
21/10:04pm 6.6 4.5 5.9 95 0.3 N 6 9 3 5 1026.8 1026.8 0.0
21/10:00pm 7.5 5.4 6.8 95 0.3 N 7 11 4 6 1026.7 1026.7 0.0
21/09:30pm 7.6 5.5 6.7 94 0.4 N 7 9 4 5 1026.6 1026.6 0.0
21/09:04pm 6.5 5.4 5.1 91 0.6 CALM 0 0 0 0 1026.6 1026.6 0.0
21/09:00pm 7.2 6.2 5.8 91 0.6 CALM 0 0 0 0 1026.6 1026.6 0.0
21/08:46pm 7.5 6.7 6.4 93 0.5 CALM 0 0 0 0 1026.5 1026.5 0.0
21/08:30pm 7.9 7.1 6.4 90 0.7 CALM 0 0 0 0 1026.4 1026.4 0.0
21/08:00pm 8.6 6.9 7.4 92 0.6 N 6 9 3 5 1026.3 1026.3 0.0
21/07:30pm 8.8 8.1 6.9 88 0.9 CALM 0 0 0 0 1026.2 1026.2 0.0
21/07:00pm 9.8 9.4 8.1 89 0.8 CALM 0 0 0 0 1025.9 1025.9 0.0
21/06:30pm 11.1 10.8 8.8 86 1.1 CALM 0 0 0 0 1025.7 1025.7 0.0
21/06:00pm 11.8 11.4 8.1 78 1.8 CALM 0 0 0 0 1025.5 1025.5 0.0
21/05:30pm 13.8 12.5 9.8 77 2.1 SSW 7 11 4 6 1025.3 1025.3 0.0
21/05:00pm 15.1 12.7 10.1 72 2.6 S 13 17 7 9 1024.9 1024.9 0.0
21/04:30pm 17.4 14.4 10.5 64 3.7 SSE 17 24 9 13 1024.5 1024.5 0.0
21/04:00pm 18.4 14.9 10.3 59 4.3 SSE 19 24 10 13 1024.3 1024.3 0.0
21/03:30pm 18.8 14.6 9.6 55 4.9 SSE 22 32 12 17 1024.2 1024.2 0.0
21/03:00pm 18.4 14.8 10.5 60 4.2 S 20 26 11 14 1024.1 1024.1 0.0
21/02:30pm 18.6 15.0 10.4 59 4.4 SSE 20 28 11 15 1024.0 1024.0 0.0
21/02:00pm 18.9 15.4 10.2 57 4.6 SSE 19 24 10 13 1024.0 1024.0 0.0
21/01:30pm 19.1 15.7 10.4 57 4.7 S 19 26 10 14 1024.1 1024.1 0.0
21/01:00pm 19.7 18.4 11.2 58 4.6 SSE 9 19 5 10 1024.3 1024.3 0.0
21/12:30pm 19.3 18.8 10.8 58 4.6 SSE 4 13 2 7 1024.7 1024.7 0.0
21/12:00pm 17.9 17.1 9.5 58 4.4 NW 4 9 2 5 1025.1 1025.1 0.0
21/11:30am 17.1 15.6 9.0 59 4.2 W 7 11 4 6 1025.6 1025.6 0.0
21/11:00am 16.3 15.1 8.0 58 4.2 SW 4 11 2 6 1025.8 1025.8 0.0
21/10:30am 15.5 13.9 7.8 60 3.8 SW 6 9 3 5 1026.3 1026.3 0.0
21/10:00am 13.9 13.7 8.9 72 2.5 CALM 0 0 0 0 1026.5 1026.5 0.0
21/09:30am 13.4 13.0 8.3 71 2.5 CALM 0 6 0 3 1026.5 1026.5 0.0
21/09:00am 12.0 11.7 8.7 80 1.6 CALM 0 0 0 0 1026.3 1026.3 0.0
21/08:30am 10.1 8.5 8.2 88 0.9 N 6 7 3 4 1026.2 1026.2 0.0
21/08:00am 8.7 6.6 6.8 88 0.9 N 7 9 4 5 1026.0 1026.0 0.0
21/07:30am 7.4 4.9 6.5 94 0.4 N 9 11 5 6 1025.5 1025.5 0.0
21/07:00am 5.7 2.8 4.8 94 0.4 NNE 9 11 5 6 1025.5 1025.5 0.0
21/06:30am 5.1 2.4 3.9 92 0.5 NNE 7 9 4 5 1025.1 1025.1 0.0
21/06:00am 5.5 2.9 4.0 90 0.6 N 7 11 4 6 1024.7 1024.7 0.0
21/05:30am 6.1 3.7 5.1 93 0.4 N 7 9 4 5 1024.5 1024.5 0.0
21/05:00am 6.5 3.8 5.6 94 0.4 N 9 11 5 6 1024.1 1024.1 0.0
21/04:30am 5.9 3.0 4.7 92 0.5 N 9 11 5 6 1024.0 1024.0 0.0
21/04:00am 6.6 5.2 5.6 93 0.4 N 2 9 1 5 1023.9 1023.9 0.0
21/03:30am 5.3 3.9 3.3 87 0.8 CALM 0 0 0 0 1023.8 1023.8 0.0
21/03:00am 7.4 6.2 4.7 83 1.2 CALM 0 0 0 0 1023.8 1023.8 0.0
21/02:30am 10.3 9.1 6.6 78 1.7 SE 2 9 1 5 1024.1 1024.1 0.0
21/02:00am 10.8 9.6 6.4 74 2.0 S 2 7 1 4 1024.4 1024.4 0.0
21/01:30am 12.4 9.7 7.3 71 2.5 SW 11 17 6 9 1024.6 1024.6 0.0
21/01:00am 12.6 9.2 7.5 71 2.5 SW 15 19 8 10 1024.5 1024.5 0.0
21/12:30am 11.3 8.3 7.8 79 1.7 SW 13 19 7 10 1024.5 1024.5 0.0
21/12:00am 10.6 8.4 8.0 84 1.3 SW 9 19 5 10 1024.5 1024.5 0.0
 
Date/Time
EST
Temp
°C
App
Temp
°C
Dew
Point
°C
Rel
Hum
%
Delta-T
°C
Wind Press
QNH
hPa
Press
MSL
hPa
Rain since
9am
mm
Dir  Spd
km/h
Gust
km/h
Spd
kts
Gust
kts
20/11:30pm 8.8 8.1 6.9 88 0.9 CALM 0 0 0 0 1024.6 1024.6 0.0
20/11:00pm 9.3 8.7 7.4 88 0.9 CALM 0 0 0 0 1024.5 1024.5 0.0
20/10:30pm 9.1 7.9 6.4 83 1.2 SSW 2 7 1 4 1024.5 1024.5 0.0
20/10:00pm 9.5 7.6 6.6 82 1.3 SSW 6 7 3 4 1024.6 1024.6 0.0
20/09:30pm 10.2 9.5 6.9 80 1.6 CALM 0 0 0 0 1024.8 1024.8 0.0
20/09:00pm 11.0 9.1 6.9 76 1.9 SSE 6 9 3 5 1024.6 1024.6 0.0
20/08:30pm 12.0 10.1 7.5 74 2.2 S 7 9 4 5 1024.7 1024.7 0.0
20/08:00pm 12.3 10.1 7.8 74 2.2 S 9 13 5 7 1024.6 1024.6 0.0
20/07:30pm 11.7 9.5 8.0 78 1.8 S 9 15 5 8 1024.4 1024.4 0.0
20/07:00pm 9.3 8.3 5.5 77 1.7 CALM 0 0 0 0 1024.3 1024.3 0.0
20/06:30pm 10.8 10.0 6.6 75 2.0 CALM 0 0 0 0 1024.1 1024.1 0.0
20/06:00pm 11.9 10.6 6.2 68 2.7 S 2 9 1 5 1023.6 1023.6 0.0
20/05:30pm 12.9 10.0 6.5 65 3.1 NNW 11 13 6 7 1023.1 1023.1 0.0
20/05:00pm 14.8 11.2 6.6 58 4.0 SSW 15 19 8 10 1023.0 1023.0 0.0
20/04:30pm 17.1 12.7 6.6 50 5.2 S 19 28 10 15 1022.7 1022.7 0.0
20/04:00pm 18.3 12.9 6.5 46 5.8 SSW 24 32 13 17 1022.5 1022.5 0.0
20/03:30pm 18.9 14.6 7.7 48 5.7 S 20 28 11 15 1022.5 1022.5 0.0
20/03:00pm 19.5 14.1 7.9 47 5.9 S 26 35 14 19 1022.1 1022.1 0.0
20/02:30pm 19.5 13.2 7.6 46 6.1 S 30 43 16 23 1021.6 1021.6 0.0
20/02:00pm 19.7 13.2 6.4 42 6.6 S 30 39 16 21 1021.7 1021.7 0.0
20/01:30pm 19.7 12.5 6.1 41 6.8 S 33 43 18 23 1021.5 1021.5 0.0
20/01:00pm 20.5 14.1 6.8 41 6.9 S 30 41 16 22 1021.5 1021.5 0.0
20/12:30pm 19.8 13.8 8.5 48 5.9 S 30 43 16 23 1021.5 1021.5 0.0
20/12:00pm 20.0 15.1 10.1 53 5.3 SSW 26 39 14 21 1021.8 1021.8 0.0
20/11:30am 19.2 14.2 9.4 53 5.2 SSW 26 35 14 19 1022.3 1022.3 0.0
20/11:00am 18.6 12.9 9.7 56 4.7 SW 30 37 16 20 1022.5 1022.5 0.0
20/10:30am 18.0 11.8 9.4 57 4.5 SSW 32 43 17 23 1022.6 1022.6 0.0
20/10:00am 17.0 12.2 8.9 59 4.2 SSW 24 32 13 17 1022.9 1022.9 0.0
20/09:30am 15.8 11.8 8.1 60 3.9 SSW 19 26 10 14 1023.1 1023.1 0.0
20/09:00am 14.9 11.7 7.0 59 3.8 SW 13 20 7 11 1023.0 1023.0 0.0
20/08:30am 13.1 12.6 8.0 71 2.5 CALM 0 9 0 5 1022.7 1022.7 0.0
20/08:00am 9.6 7.4 6.1 79 1.6 NNE 7 9 4 5 1022.6 1022.6 0.0
20/07:30am 7.1 4.9 5.1 87 0.9 NNE 6 13 3 7 1022.2 1022.2 0.0
20/07:00am 4.4 0.5 3.4 93 0.4 NNE 13 13 7 7 1021.9 1021.9 0.0
20/06:30am 3.9 0.9 2.1 88 0.7 N 7 9 4 5 1021.6 1021.6 0.0
20/06:00am 5.1 1.6 3.6 90 0.6 NNE 11 13 6 7 1021.5 1021.5 0.0
20/05:30am 4.8 1.6 3.1 89 0.7 NNE 9 11 5 6 1020.9 1020.9 0.0
20/05:00am 5.1 1.6 3.3 88 0.7 N 11 15 6 8 1021.0 1021.0 0.0
20/04:30am 5.8 1.3 4.3 90 0.6 N 17 20 9 11 1020.5 1020.5 0.0
20/04:00am 4.9 1.4 3.4 90 0.6 N 11 15 6 8 1020.2 1020.2 0.0
20/03:30am 5.8 3.2 4.3 90 0.6 NNE 7 11 4 6 1020.6 1020.6 0.0
20/03:00am 5.6 1.9 4.4 92 0.5 N 13 19 7 10 1020.2 1020.2 0.0
20/02:30am 3.8 0.5 2.5 91 0.5 N 9 13 5 7 1020.2 1020.2 0.0
20/02:00am 4.6 1.5 3.4 92 0.5 NNE 9 13 5 7 1020.0 1020.0 0.0
20/01:30am 4.2 1.0 3.0 92 0.5 N 9 11 5 6 1019.7 1019.7 0.0
20/01:00am 4.4 1.8 3.1 91 0.5 N 6 9 3 5 1019.6 1019.6 0.0
20/12:30am 5.2 1.8 4.0 92 0.5 N 11 15 6 8 1019.7 1019.7 0.0
20/12:00am 5.3 2.1 3.3 87 0.8 N 9 11 5 6 1019.8 1019.8 0.0
 
Date/Time
EST
Temp
°C
App
Temp
°C
Dew
Point
°C
Rel
Hum
%
Delta-T
°C
Wind Press
QNH
hPa
Press
MSL
hPa
Rain since
9am
mm
Dir  Spd
km/h
Gust
km/h
Spd
kts
Gust
kts
19/11:30pm 5.4 4.0 3.3 86 0.9 CALM 0 0 0 0 1020.0 1020.0 0.0
19/11:00pm 6.3 5.1 4.6 89 0.7 CALM 0 0 0 0 1019.9 1019.9 0.0
19/10:30pm 5.8 4.3 3.1 83 1.1 CALM 0 0 0 0 1020.0 1020.0 0.0
19/10:00pm 6.5 4.0 3.7 82 1.2 S 6 11 3 6 1019.8 1019.8 0.0
19/09:30pm 7.7 5.1 4.3 79 1.5 S 7 9 4 5 1019.4 1019.4 0.0
19/09:00pm 8.5 6.2 4.9 78 1.6 SSE 6 7 3 4 1019.1 1019.1 0.0
19/08:30pm 9.9 7.2 3.9 66 2.6 S 7 11 4 6 1018.9 1018.9 0.0
19/08:00pm 11.1 8.4 3.9 61 3.2 SW 7 11 4 6 1018.9 1018.9 0.0
19/07:30pm 12.9 9.5 4.1 55 4.0 SW 11 15 6 8 1018.8 1018.8 0.0
19/07:00pm 13.8 10.1 4.4 53 4.3 SW 13 20 7 11 1018.4 1018.4 0.0
19/06:30pm 13.5 11.4 5.7 59 3.7 SW 6 7 3 4 1018.2 1018.2 0.0
19/06:00pm 14.0 10.9 5.4 56 4.0 SSW 11 17 6 9 1017.8 1017.8 0.0
19/05:30pm 14.1 10.4 4.7 53 4.4 SW 13 17 7 9 1017.4 1017.4 0.0
19/05:00pm 14.1 11.2 4.9 54 4.3 S 9 11 5 6 1017.0 1017.0 0.0
19/04:30pm 15.9 11.5 4.6 47 5.3 S 17 20 9 11 1016.7 1016.7 0.0
19/04:00pm 17.3 12.7 3.9 41 6.3 SSW 17 24 9 13 1016.2 1016.2 0.0
19/03:30pm 18.3 14.0 3.0 36 7.1 SSW 15 20 8 11 1015.9 1015.9 0.0
19/03:00pm 18.0 13.2 2.7 36 7.0 SSW 17 20 9 11 1016.0 1016.0 0.0
19/02:30pm 18.6 14.4 3.6 37 7.0 SSW 15 24 8 13 1016.0 1016.0 0.0
19/02:00pm 18.1 13.5 3.6 38 6.8 S 17 22 9 12 1016.1 1016.1 0.0
19/01:30pm 18.0 13.2 2.7 36 7.0 SSW 17 24 9 13 1016.1 1016.1 0.0
19/01:00pm 18.0 13.2 2.7 36 7.0 WSW 17 24 9 13 1016.1 1016.1 0.0
19/12:30pm 17.7 12.7 3.6 39 6.6 SSW 19 30 10 16 1016.6 1016.6 0.0
19/12:00pm 18.0 13.5 2.3 35 7.1 SW 15 28 8 15 1016.8 1016.8 0.0
19/11:30am 18.0 12.1 1.5 33 7.4 W 22 32 12 17 1017.4 1017.4 0.0
19/11:00am 17.7 13.0 3.2 38 6.7 WNW 17 26 9 14 1017.6 1017.6 0.0
19/10:30am 17.0 11.9 3.3 40 6.3 WNW 19 26 10 14 1017.6 1017.6 0.0
19/10:00am 16.3 10.2 2.7 40 6.1 W 24 30 13 16 1017.6 1017.6 0.0
19/09:30am 15.2 9.5 2.7 43 5.6 W 22 30 12 16 1017.8 1017.8 0.0
19/09:00am 14.7 9.6 3.2 46 5.2 W 19 24 10 13 1017.9 1017.9 0.0
19/08:30am 11.8 8.6 5.0 63 3.1 N 11 13 6 7 1017.8 1017.8 0.0
19/08:00am 10.1 6.8 4.3 67 2.6 N 11 13 6 7 1017.7 1017.7 0.0
19/07:30am 8.3 5.1 3.2 70 2.2 N 9 11 5 6 1017.7 1017.7 0.0
19/07:00am 7.6 4.8 3.1 73 1.9 N 7 11 4 6 1017.5 1017.5 0.0
19/06:30am 7.0 3.7 2.7 74 1.8 N 9 13 5 7 1017.4 1017.4 0.0
19/06:00am 7.0 3.8 3.1 76 1.6 ENE 9 13 5 7 1017.0 1017.0 0.0
19/05:30am 7.3 4.0 2.6 72 2.0 NNE 9 13 5 7 1016.8 1016.8 0.0
19/05:00am 9.3 6.1 3.3 66 2.6 N 9 15 5 8 1016.6 1016.6 0.0
19/04:30am 7.7 3.8 3.4 74 1.8 N 13 15 7 8 1016.7 1016.7 0.0
19/04:00am 7.1 3.1 3.0 75 1.7 NNE 13 15 7 8 1016.9 1016.9 0.0

Other Formats:

Comma delimited format used in spreadsheet applications
http://www.bom.gov.au/fwo/IDN60801/IDN60801.94572.axf

JavaScript Object Notation format (JSON) in row-major order
http://www.bom.gov.au/fwo/IDN60801/IDN60801.94572.json